ETD14X OMDB-OMAA
Flight info
| Callsign | ETD14X |
|---|---|
| Flight time | 0h 25m |
| Altitude | 10000 |
| Route | EMERU |
| Aircraft | A35K/H-SDE2E3GHIJ3J4J5LM1ORWXY/LB1D1 |
Departure
| Time | 2026-04-23 17:43 |
|---|---|
| Airport | Dubai International Airport (OMDB) |
Arrival
| Time | 2026-04-23 18:09 |
|---|---|
| Airport | Zayed International Airport (OMAA) |
| Time | Latitude | Longitude | Altitude | Speed | Heading |
|---|---|---|---|---|---|
| 2026-04-23 16:41 | 25.25605 | 55.34777 | 27 ft | 0 kts | 300° |
| 2026-04-23 16:48 | 25.25600 | 55.34785 | 26 ft | 2 kts | 300° |
| 2026-04-23 16:48 | 25.25592 | 55.34800 | 26 ft | 2 kts | 300° |
| 2026-04-23 16:49 | 25.25587 | 55.34810 | 26 ft | 2 kts | 300° |
| 2026-04-23 16:49 | 25.25575 | 55.34831 | 25 ft | 3 kts | 321° |
| 2026-04-23 16:49 | 25.25559 | 55.34841 | 25 ft | 3 kts | 355° |
| 2026-04-23 16:49 | 25.25541 | 55.34840 | 25 ft | 3 kts | 25° |
| 2026-04-23 16:50 | 25.25539 | 55.34839 | 25 ft | 0 kts | 31° |
| 2026-04-23 17:35 | 25.25543 | 55.34842 | 0 ft | 3 kts | 33° |
| 2026-04-23 17:36 | 25.25576 | 55.34870 | 27 ft | 10 kts | 37° |
| 2026-04-23 17:36 | 25.25652 | 55.34929 | 27 ft | 17 kts | 32° |
| 2026-04-23 17:36 | 25.25728 | 55.34981 | 27 ft | 22 kts | 31° |
| 2026-04-23 17:36 | 25.25875 | 55.35080 | 27 ft | 28 kts | 30° |
| 2026-04-23 17:37 | 25.26106 | 55.35241 | 28 ft | 20 kts | 51° |
| 2026-04-23 17:37 | 25.26104 | 55.35345 | 28 ft | 23 kts | 114° |
| 2026-04-23 17:37 | 25.25886 | 55.35740 | 28 ft | 37 kts | 121° |
| 2026-04-23 17:38 | 25.25741 | 55.35999 | 28 ft | 42 kts | 122° |
| 2026-04-23 17:38 | 25.25580 | 55.36285 | 28 ft | 46 kts | 122° |
| 2026-04-23 17:38 | 25.25433 | 55.36543 | 28 ft | 34 kts | 121° |
| 2026-04-23 17:38 | 25.25301 | 55.36777 | 28 ft | 36 kts | 122° |
| 2026-04-23 17:39 | 25.25171 | 55.37010 | 28 ft | 32 kts | 122° |
| 2026-04-23 17:39 | 25.25065 | 55.37199 | 29 ft | 30 kts | 121° |
| 2026-04-23 17:39 | 25.24953 | 55.37397 | 30 ft | 32 kts | 122° |
| 2026-04-23 17:39 | 25.24829 | 55.37615 | 29 ft | 33 kts | 122° |
| 2026-04-23 17:40 | 25.24727 | 55.37796 | 28 ft | 4 kts | 122° |
| 2026-04-23 17:40 | 25.24723 | 55.37803 | 28 ft | 3 kts | 122° |
| 2026-04-23 17:40 | 25.24704 | 55.37837 | 28 ft | 7 kts | 122° |
| 2026-04-23 17:40 | 25.24674 | 55.37897 | 28 ft | 10 kts | 108° |
| 2026-04-23 17:41 | 25.24689 | 55.37967 | 29 ft | 10 kts | 49° |
| 2026-04-23 17:41 | 25.24696 | 55.37974 | 29 ft | 1 kts | 39° |
| 2026-04-23 17:41 | 25.24707 | 55.37983 | 29 ft | 3 kts | 36° |
| 2026-04-23 17:42 | 25.24788 | 55.38009 | 31 ft | 9 kts | 348° |
| 2026-04-23 17:42 | 25.24836 | 55.37968 | 31 ft | 10 kts | 307° |
| 2026-04-23 17:42 | 25.24878 | 55.37893 | 31 ft | 15 kts | 301° |
| 2026-04-23 17:43 | 25.25076 | 55.37540 | 33 ft | 106 kts | 301° |
| 2026-04-23 17:43 | 25.25643 | 55.36526 | 238 ft | 186 kts | 303° |
| 2026-04-23 17:43 | 25.26305 | 55.35223 | 1205 ft | 190 kts | 299° |
| 2026-04-23 17:43 | 25.26936 | 55.33950 | 1820 ft | 193 kts | 304° |
| 2026-04-23 17:44 | 25.27667 | 55.32648 | 2059 ft | 211 kts | 307° |
| 2026-04-23 17:44 | 25.28293 | 55.31086 | 2405 ft | 228 kts | 287° |
| 2026-04-23 17:44 | 25.27663 | 55.27656 | 3554 ft | 235 kts | 249° |
| 2026-04-23 17:45 | 25.27059 | 55.26091 | 4052 ft | 240 kts | 248° |
| 2026-04-23 17:45 | 25.25705 | 55.22616 | 5242 ft | 251 kts | 248° |
| 2026-04-23 17:45 | 25.25012 | 55.20829 | 5825 ft | 257 kts | 248° |
| 2026-04-23 17:46 | 25.23575 | 55.17125 | 6972 ft | 267 kts | 247° |
| 2026-04-23 17:46 | 25.22837 | 55.15223 | 7577 ft | 271 kts | 247° |
| 2026-04-23 17:46 | 25.22088 | 55.13295 | 8152 ft | 274 kts | 246° |
| 2026-04-23 17:47 | 25.21333 | 55.11352 | 8760 ft | 276 kts | 246° |
| 2026-04-23 17:47 | 25.20571 | 55.09391 | 9381 ft | 277 kts | 246° |
| 2026-04-23 17:47 | 25.19041 | 55.05456 | 10004 ft | 279 kts | 246° |
| 2026-04-23 17:48 | 25.18283 | 55.03508 | 10031 ft | 280 kts | 246° |
| 2026-04-23 17:48 | 25.17506 | 55.01511 | 10030 ft | 281 kts | 246° |
| 2026-04-23 17:48 | 25.16734 | 54.99529 | 10029 ft | 281 kts | 245° |
| 2026-04-23 17:48 | 25.15960 | 54.97542 | 10029 ft | 282 kts | 245° |
| 2026-04-23 17:49 | 25.15154 | 54.95571 | 10029 ft | 282 kts | 241° |
| 2026-04-23 17:49 | 25.13959 | 54.93877 | 10027 ft | 281 kts | 220° |
| 2026-04-23 17:49 | 25.12240 | 54.92889 | 10027 ft | 282 kts | 194° |
| 2026-04-23 17:49 | 25.10277 | 54.92689 | 10029 ft | 284 kts | 182° |
| 2026-04-23 17:50 | 25.08298 | 54.92689 | 10029 ft | 285 kts | 181° |
| 2026-04-23 17:50 | 25.04328 | 54.92714 | 10029 ft | 286 kts | 181° |
| 2026-04-23 17:50 | 25.02344 | 54.92980 | 10025 ft | 289 kts | 166° |
| 2026-04-23 17:51 | 25.00490 | 54.93849 | 10026 ft | 291 kts | 155° |
| 2026-04-23 17:51 | 24.98692 | 54.94884 | 10025 ft | 291 kts | 155° |
| 2026-04-23 17:51 | 24.95103 | 54.96955 | 10025 ft | 291 kts | 155° |
| 2026-04-23 17:52 | 24.93306 | 54.97984 | 9974 ft | 287 kts | 155° |
| 2026-04-23 17:52 | 24.89852 | 54.99953 | 9189 ft | 281 kts | 155° |
| 2026-04-23 17:52 | 24.88094 | 55.00948 | 8629 ft | 284 kts | 155° |
| 2026-04-23 17:53 | 24.84592 | 55.02935 | 7667 ft | 285 kts | 155° |
| 2026-04-23 17:53 | 24.82818 | 55.03897 | 7199 ft | 283 kts | 160° |
| 2026-04-23 17:53 | 24.80919 | 55.04347 | 6720 ft | 278 kts | 182° |
| 2026-04-23 17:54 | 24.79040 | 55.03910 | 6282 ft | 272 kts | 206° |
| 2026-04-23 17:54 | 24.77374 | 55.02915 | 5805 ft | 271 kts | 212° |
| 2026-04-23 17:54 | 24.74174 | 55.00776 | 4936 ft | 269 kts | 213° |
| 2026-04-23 17:55 | 24.70974 | 54.98660 | 3950 ft | 271 kts | 212° |
| 2026-04-23 17:55 | 24.69325 | 54.97575 | 3371 ft | 278 kts | 211° |
| 2026-04-23 17:55 | 24.67656 | 54.96480 | 3073 ft | 282 kts | 210° |
| 2026-04-23 17:56 | 24.65952 | 54.95369 | 3022 ft | 286 kts | 210° |
| 2026-04-23 17:56 | 24.62538 | 54.93139 | 3019 ft | 286 kts | 211° |
| 2026-04-23 17:56 | 24.60832 | 54.92029 | 3017 ft | 284 kts | 210° |
| 2026-04-23 17:57 | 24.59129 | 54.90924 | 3018 ft | 285 kts | 211° |
| 2026-04-23 17:57 | 24.57424 | 54.89813 | 3019 ft | 284 kts | 210° |
| 2026-04-23 17:57 | 24.54008 | 54.87583 | 3020 ft | 283 kts | 211° |
| 2026-04-23 17:58 | 24.52319 | 54.86474 | 3018 ft | 282 kts | 211° |
| 2026-04-23 17:58 | 24.50630 | 54.85372 | 3017 ft | 283 kts | 211° |
| 2026-04-23 17:58 | 24.48937 | 54.84269 | 3017 ft | 283 kts | 211° |
| 2026-04-23 17:58 | 24.47288 | 54.83207 | 3019 ft | 268 kts | 208° |
| 2026-04-23 17:59 | 24.45543 | 54.82609 | 3023 ft | 261 kts | 181° |
| 2026-04-23 17:59 | 24.43815 | 54.83017 | 3023 ft | 253 kts | 149° |
| 2026-04-23 17:59 | 24.42498 | 54.84242 | 3019 ft | 248 kts | 127° |
| 2026-04-23 17:59 | 24.41422 | 54.85728 | 3017 ft | 249 kts | 124° |
| 2026-04-23 18:00 | 24.40390 | 54.87228 | 3015 ft | 249 kts | 124° |
| 2026-04-23 18:00 | 24.39340 | 54.88742 | 3017 ft | 249 kts | 125° |
| 2026-04-23 18:00 | 24.38277 | 54.90250 | 3024 ft | 251 kts | 124° |
| 2026-04-23 18:00 | 24.37088 | 54.91654 | 3015 ft | 255 kts | 140° |
| 2026-04-23 18:01 | 24.35456 | 54.92412 | 3020 ft | 260 kts | 172° |
| 2026-04-23 18:01 | 24.33709 | 54.92142 | 3035 ft | 247 kts | 206° |
| 2026-04-23 18:01 | 24.32430 | 54.91061 | 3042 ft | 221 kts | 233° |
| 2026-04-23 18:01 | 24.31769 | 54.89654 | 3036 ft | 197 kts | 257° |
| 2026-04-23 18:02 | 24.31475 | 54.88727 | 3033 ft | 184 kts | 253° |
| 2026-04-23 18:02 | 24.30686 | 54.87140 | 3032 ft | 175 kts | 238° |
| 2026-04-23 18:02 | 24.30087 | 54.86033 | 3025 ft | 162 kts | 248° |
| 2026-04-23 18:02 | 24.29804 | 54.84889 | 3009 ft | 152 kts | 274° |
| 2026-04-23 18:03 | 24.30107 | 54.83799 | 3027 ft | 150 kts | 304° |
| 2026-04-23 18:03 | 24.30717 | 54.82875 | 3015 ft | 149 kts | 312° |
| 2026-04-23 18:03 | 24.31360 | 54.81988 | 3014 ft | 148 kts | 311° |
| 2026-04-23 18:03 | 24.31994 | 54.81098 | 3009 ft | 147 kts | 311° |
| 2026-04-23 18:04 | 24.32621 | 54.80208 | 2979 ft | 147 kts | 312° |
| 2026-04-23 18:04 | 24.33245 | 54.79321 | 2801 ft | 147 kts | 313° |
| 2026-04-23 18:04 | 24.33873 | 54.78430 | 2620 ft | 149 kts | 314° |
| 2026-04-23 18:04 | 24.34511 | 54.77530 | 2413 ft | 150 kts | 316° |
| 2026-04-23 18:05 | 24.35143 | 54.76638 | 2235 ft | 150 kts | 316° |
| 2026-04-23 18:05 | 24.35779 | 54.75739 | 2041 ft | 148 kts | 316° |
| 2026-04-23 18:05 | 24.36406 | 54.74852 | 1863 ft | 146 kts | 317° |
| 2026-04-23 18:05 | 24.37025 | 54.73979 | 1672 ft | 144 kts | 318° |
| 2026-04-23 18:06 | 24.37634 | 54.73119 | 1490 ft | 141 kts | 317° |
| 2026-04-23 18:06 | 24.38233 | 54.72274 | 1309 ft | 140 kts | 315° |
| 2026-04-23 18:06 | 24.38832 | 54.71428 | 1133 ft | 140 kts | 315° |
| 2026-04-23 18:06 | 24.39432 | 54.70580 | 962 ft | 141 kts | 315° |
| 2026-04-23 18:07 | 24.40028 | 54.69741 | 792 ft | 137 kts | 312° |
| 2026-04-23 18:07 | 24.40606 | 54.68919 | 639 ft | 136 kts | 316° |
| 2026-04-23 18:07 | 24.41184 | 54.68104 | 452 ft | 135 kts | 316° |
| 2026-04-23 18:07 | 24.41761 | 54.67294 | 274 ft | 134 kts | 310° |
| 2026-04-23 18:08 | 24.42135 | 54.66762 | 157 ft | 132 kts | 311° |
| 2026-04-23 18:08 | 24.42826 | 54.65803 | 85 ft | 75 kts | 308° |
| 2026-04-23 18:08 | 24.43048 | 54.65499 | 89 ft | 55 kts | 308° |
| 2026-04-23 18:08 | 24.43298 | 54.65157 | 88 ft | 57 kts | 309° |
| 2026-04-23 18:09 | 24.43584 | 54.64880 | 87 ft | 54 kts | 336° |
| 2026-04-23 18:09 | 24.43767 | 54.64769 | 87 ft | 20 kts | 310° |
| 2026-04-23 18:09 | 24.43775 | 54.64759 | 87 ft | 0 kts | 310° |
| 2026-04-23 18:09 | 24.43779 | 54.64754 | 87 ft | 3 kts | 310° |
| 2026-04-23 18:10 | 24.43803 | 54.64723 | 87 ft | 8 kts | 310° |
| 2026-04-23 18:10 | 24.43847 | 54.64665 | 87 ft | 12 kts | 309° |
| 2026-04-23 18:10 | 24.43907 | 54.64584 | 88 ft | 15 kts | 309° |
| 2026-04-23 18:10 | 24.43975 | 54.64485 | 85 ft | 18 kts | 307° |
| 2026-04-23 18:11 | 24.44056 | 54.64368 | 88 ft | 20 kts | 307° |
| 2026-04-23 18:11 | 24.44116 | 54.64326 | 85 ft | 0 kts | 354° |
| 2026-04-23 18:13 | 24.44124 | 54.64327 | 87 ft | 3 kts | 5° |
| 2026-04-23 18:13 | 24.44160 | 54.64340 | 87 ft | 8 kts | 30° |
| 2026-04-23 18:14 | 24.44230 | 54.64390 | 87 ft | 15 kts | 45° |
| 2026-04-23 18:14 | 24.44298 | 54.64512 | 86 ft | 22 kts | 46° |
| 2026-04-23 18:14 | 24.44434 | 54.64633 | 86 ft | 28 kts | 38° |
| 2026-04-23 18:14 | 24.44597 | 54.64756 | 87 ft | 19 kts | 11° |
| 2026-04-23 18:15 | 24.44713 | 54.64675 | 87 ft | 23 kts | 313° |
| 2026-04-23 18:15 | 24.44869 | 54.64586 | 86 ft | 28 kts | 343° |
| 2026-04-23 18:15 | 24.44997 | 54.64579 | 86 ft | 9 kts | 13° |
| 2026-04-23 18:15 | 24.45017 | 54.64585 | 85 ft | 0 kts | 13° |